Enfonvelle, France

51.8°F / 11.0°C
Mostly Cloudy
Humidity: 55%
Dew Point: 36°F / 2°C
Wind: ESE at 2.5 mph / 4.0 km/h
Wind Gust: 3.4 mph / 5.5 km/h
Pressure: 30.04 in / 1017 hPa (Steady)
Visibility: 6.2 miles / 10.0 kilometers
Clouds: Mostly Cloudy (BKN) : 2100 ft / 640 m
Mostly Cloudy (BKN) : 21000 ft / 6400 m
Yesterday's Maximum: 62.2°F / 16.8°C
Yesterday's Minimum: 41.7°F / 5.4°C
UV: 4.0 out of 16
Sunrise:6:27 AM CEST
Sunset:8:41 PM CEST
Moon Rise:2:55 AM CEST
Moon Set:11:49 AM CEST
Moon Phase Waning Gibbous
NOAA Weather Radio
No local feed.
METAR LFSX 261130Z AUTO 16005KT 110V210 9999 BKN021 BKN210 11/06 Q1017
As of: 2:00 PM CEST on April 26, 2019
Observed at: Peu d'Acquet, Pont-du-Bois, France

View Station's History

No Yes

Local Satellite

Current Satellite Forecast
Region Default Local
No Yes

View Full Screen WunderMap

Forecast

Current Satellite Forecast

Features

Weather Apps

WunderRadio

Weather Underground Apps
Check out our wide variety of mobile and setup applications.

Weather Underground Applications

Top of Page

© Copyright 2019
The Weather Company, LLC